Time;durP1;ratioP1;P1;durP2;ratioP2;P2;SDS_P1;SDS_P2;PMS_P1;PMS_P2;Temp;Humidity;BMP_temperature;BMP_pressure;BME280_temperature;BME280_humidity;BME280_pressure;Samples;Min_cycle;Max_cycle;Signal;HPM_P1;HPM_P2
2022/07/25 00:00:46;;;;;;;;;17.00;17.00;;;;;20.60;63.80;99729.59;6282345;20;2831505;-60
2022/07/25 00:03:15;;;;;;;;;16.33;16.33;;;;;20.73;63.52;99729.19;6282768;20;3561808;-60
2022/07/25 00:05:46;;;;;;;;;17.67;17.67;;;;;20.45;64.75;99719.38;6282245;20;3563783;-60
2022/07/25 00:08:14;;;;;;;;;20.00;18.50;;;;;20.26;65.17;99729.44;6316724;20;2720078;-59
2022/07/25 00:10:43;;;;;;;;;19.67;17.33;;;;;20.22;65.94;99722.59;6313063;20;3573292;-60
2022/07/25 00:13:12;;;;;;;;;18.50;18.50;;;;;20.30;64.46;99728.13;6279285;20;2832830;-60
2022/07/25 00:15:41;;;;;;;;;16.00;15.00;;;;;20.74;63.00;99721.84;6281282;20;2818028;-60
2022/07/25 00:18:10;;;;;;;;;17.00;15.50;;;;;20.39;64.43;99718.97;6282889;20;2822168;-60
2022/07/25 00:20:38;;;;;;;;;17.00;17.00;;;;;20.31;64.20;99724.38;6278584;20;2835696;-60
2022/07/25 00:23:08;;;;;;;;;21.00;17.67;;;;;20.37;63.79;99721.00;6282050;20;2841921;-59
2022/07/25 00:25:36;;;;;;;;;15.67;15.67;;;;;20.24;64.64;99717.81;6315988;20;3556477;-59
2022/07/25 00:28:05;;;;;;;;;18.50;18.50;;;;;20.08;65.45;99718.50;6281328;20;2832552;-59
2022/07/25 00:30:33;;;;;;;;;18.00;16.00;;;;;20.01;65.57;99716.56;6284485;20;2483622;-58
2022/07/25 00:33:01;;;;;;;;;16.67;16.33;;;;;20.26;65.00;99717.66;6282018;20;2492359;-60
2022/07/25 00:35:30;;;;;;;;;16.00;16.00;;;;;20.02;65.99;99707.38;6315519;20;3564818;-58
2022/07/25 00:37:58;;;;;;;;;16.00;16.00;;;;;19.70;66.51;99708.75;6281427;20;2491954;-58
2022/07/25 00:40:26;;;;;;;;;20.33;19.00;;;;;19.91;65.75;99720.22;6277803;20;2496093;-59
2022/07/25 00:42:55;;;;;;;;;18.67;17.33;;;;;19.79;66.06;99715.97;6310379;20;3566068;-59
2022/07/25 00:45:24;;;;;;;;;18.00;17.33;;;;;19.95;65.57;99716.16;6279594;20;2484107;-58
2022/07/25 00:47:52;;;;;;;;;19.50;17.50;;;;;19.40;68.13;99709.84;6313765;20;2840040;-58
2022/07/25 00:50:22;;;;;;;;;18.00;18.00;;;;;19.55;67.95;99715.66;6277779;20;2831602;-59
2022/07/25 00:52:51;;;;;;;;;14.67;13.00;;;;;20.09;65.24;99716.63;6282737;20;3527331;-59
2022/07/25 00:55:21;;;;;;;;;18.00;17.50;;;;;20.28;64.60;99715.66;6278663;20;2837794;-59
2022/07/25 00:57:50;;;;;;;;;18.67;18.67;;;;;19.68;66.44;99713.47;6279045;20;2844043;-60
2022/07/25 01:00:19;;;;;;;;;18.00;18.00;;;;;19.44;67.67;99717.59;6312253;20;3566996;-59
2022/07/25 01:02:47;;;;;;;;;0.00;0.00;;;;;19.17;68.92;99715.69;6286850;20;2694149;-60
2022/07/25 01:05:18;;;;;;;;;18.00;16.50;;;;;19.28;68.71;99706.47;6280050;20;2832547;-59
2022/07/25 01:07:47;;;;;;;;;19.00;18.00;;;;;19.25;68.12;99712.22;6282384;20;2822135;-60
2022/07/25 01:10:15;;;;;;;;;17.00;16.00;;;;;19.04;69.83;99707.84;6278348;20;2829600;-59
2022/07/25 01:12:55;;;;;;;;;18.00;18.00;;;;;19.11;69.55;99707.25;6282342;20;2834666;-59
2022/07/25 01:15:25;;;;;;;;;16.00;15.67;;;;;19.32;68.44;99713.31;6282481;20;3543635;-59
2022/07/25 01:17:55;;;;;;;;;18.00;17.00;;;;;19.24;69.02;99710.50;6278811;20;2835926;-59
2022/07/25 01:20:27;;;;;;;;;19.67;16.33;;;;;19.63;67.42;99705.72;6282944;20;3551293;-60
2022/07/25 01:22:57;;;;;;;;;17.50;17.50;;;;;19.49;67.93;99711.69;6310436;20;2828497;-60
2022/07/25 01:25:27;;;;;;;;;13.00;13.00;;;;;19.12;69.53;99709.00;6277259;20;3535896;-59
2022/07/25 01:27:56;;;;;;;;;17.00;16.50;;;;;19.00;69.38;99713.75;6278593;20;2831533;-59
2022/07/25 01:30:25;;;;;;;;;19.00;17.00;;;;;19.03;69.76;99703.41;6276032;20;3571090;-59
2022/07/25 01:32:54;;;;;;;;;18.00;18.00;;;;;18.41;71.08;99704.81;6279861;20;2837859;-59
2022/07/25 01:35:23;;;;;;;;;19.00;19.00;;;;;18.67;70.13;99709.63;6279621;20;2839980;-59
2022/07/25 01:37:51;;;;;;;;;19.50;17.00;;;;;18.63;70.56;99712.63;6280964;20;2828380;-56
2022/07/25 01:40:20;;;;;;;;;18.50;17.00;;;;;18.09;72.13;99707.78;6279539;20;2823262;-54
2022/07/25 01:42:48;;;;;;;;;17.50;16.50;;;;;17.96;72.96;99706.22;6277042;20;2500264;-52
2022/07/25 01:45:17;;;;;;;;;18.00;18.00;;;;;17.98;73.11;99708.78;6283527;20;2831530;-56
2022/07/25 01:47:45;;;;;;;;;19.00;19.00;;;;;17.93;72.87;99702.91;6278495;20;2824261;-57
2022/07/25 01:50:14;;;;;;;;;17.00;17.00;;;;;17.88;73.24;99703.38;6278479;20;2822299;-54
2022/07/25 01:52:43;;;;;;;;;23.50;19.00;;;;;18.02;73.06;99702.09;6280922;20;2844325;-56
2022/07/25 01:55:12;;;;;;;;;22.00;19.50;;;;;18.09;72.88;99703.25;6278342;20;2839831;-56
2022/07/25 01:57:40;;;;;;;;;15.50;14.50;;;;;18.07;73.35;99698.94;6277490;20;2494099;-56
2022/07/25 02:00:17;;;;;;;;;17.00;16.00;;;;;18.08;73.12;99696.06;6280977;20;3569016;-55
2022/07/25 02:02:46;;;;;;;;;17.50;17.50;;;;;18.26;72.38;99698.09;6279045;20;2827901;-54
2022/07/25 02:05:15;;;;;;;;;19.50;18.00;;;;;18.23;73.00;99699.22;6280271;20;2824243;-52
2022/07/25 02:07:43;;;;;;;;;20.00;18.67;;;;;18.24;72.46;99697.38;6282016;20;3572179;-53
2022/07/25 02:10:13;;;;;;;;;21.33;20.33;;;;;18.17;72.13;99695.22;6280315;20;2842031;-53
2022/07/25 02:12:42;;;;;;;;;19.67;19.00;;;;;17.99;72.84;99694.22;6308074;20;3571083;-53
2022/07/25 02:15:11;;;;;;;;;19.00;19.00;;;;;18.01;73.22;99696.78;6277442;20;2833643;-53
2022/07/25 02:17:39;;;;;;;;;25.00;19.50;;;;;17.85;73.00;99689.19;6276155;20;2835477;-59
2022/07/25 02:20:09;;;;;;;;;18.50;18.50;;;;;17.93;73.53;99697.47;6279345;20;2834777;-59
2022/07/25 02:22:38;;;;;;;;;20.50;19.50;;;;;17.99;72.73;99700.50;6278158;20;2830715;-59
2022/07/25 02:25:07;;;;;;;;;23.00;22.50;;;;;17.70;73.61;99697.72;6279745;20;2850282;-60
2022/07/25 02:27:36;;;;;;;;;18.00;17.00;;;;;17.81;73.35;99698.63;6274284;20;2829021;-60
2022/07/25 02:30:07;;;;;;;;;19.50;19.50;;;;;18.09;71.36;99703.25;6279772;20;2833618;-60
2022/07/25 02:32:36;;;;;;;;;22.50;20.00;;;;;18.20;71.18;99694.94;6278198;20;2832712;-59
2022/07/25 02:35:07;;;;;;;;;20.00;19.00;;;;;17.94;72.42;99699.22;6279121;20;2839253;-59
2022/07/25 02:37:41;;;;;;;;;20.67;18.67;;;;;18.29;71.26;99703.22;6279011;20;3562723;-59
2022/07/25 02:40:11;;;;;;;;;18.00;18.00;;;;;18.24;70.84;99683.78;6272792;20;2820082;-59
2022/07/25 02:42:40;;;;;;;;;21.00;21.00;;;;;18.33;70.48;99691.94;6277351;20;2840873;-59
2022/07/25 02:45:09;;;;;;;;;20.67;20.00;;;;;18.32;70.68;99686.63;6310801;20;3575231;-59
2022/07/25 02:47:38;;;;;;;;;14.50;14.50;;;;;17.90;71.79;99686.91;6269757;20;2810716;-60
2022/07/25 02:50:08;;;;;;;;;21.00;19.00;;;;;17.69;73.30;99690.59;6275895;20;2839959;-60
2022/07/25 02:52:43;;;;;;;;;19.00;18.67;;;;;17.51;73.74;99694.97;6282080;20;3571091;-60
2022/07/25 02:55:11;;;;;;;;;8.00;8.00;;;;;17.29;74.71;99699.59;6279104;20;2629444;-60
2022/07/25 02:57:39;;;;;;;;;21.00;19.00;;;;;17.42;73.80;99702.06;6276562;20;3561809;-60
2022/07/25 03:00:09;;;;;;;;;24.00;21.00;;;;;17.38;74.16;99702.47;6309342;20;3591973;-59
2022/07/25 03:02:38;;;;;;;;;21.00;18.50;;;;;17.45;73.83;99709.94;6277259;20;2837189;-59
2022/07/25 03:05:14;;;;;;;;;24.50;22.00;;;;;17.45;74.08;99709.06;6275209;20;2846245;-57
2022/07/25 03:07:44;;;;;;;;;19.00;19.00;;;;;17.27;74.16;99707.03;6279116;20;3577305;-58
2022/07/25 03:10:14;;;;;;;;;19.50;19.50;;;;;17.27;75.29;99715.16;6275145;20;2837841;-59
2022/07/25 03:12:44;;;;;;;;;19.00;19.00;;;;;17.30;74.62;99705.91;6276897;20;2829512;-59
2022/07/25 03:15:13;;;;;;;;;24.00;21.00;;;;;16.88;75.85;99708.69;6278465;20;3562252;-58
2022/07/25 03:17:42;;;;;;;;;25.33;23.33;;;;;16.68;76.79;99707.69;6307638;20;3576272;-59
2022/07/25 03:20:12;;;;;;;;;28.33;22.67;;;;;17.11;75.31;99712.97;6276746;20;2842034;-59
2022/07/25 03:22:41;;;;;;;;;21.67;21.00;;;;;17.55;73.49;99720.81;6312415;20;3581580;-60
2022/07/25 03:25:10;;;;;;;;;26.00;24.67;;;;;17.59;72.68;99722.28;6274125;20;3588803;-60
2022/07/25 03:27:49;;;;;;;;;29.67;26.33;;;;;17.50;72.73;99718.50;6315395;20;3604822;-61
2022/07/25 03:30:19;;;;;;;;;21.67;21.67;;;;;17.13;74.62;99722.81;6279717;20;2837775;-61
2022/07/25 03:32:49;;;;;;;;;20.00;19.00;;;;;17.43;73.16;99722.81;6317887;20;3559612;-61
2022/07/25 03:35:17;;;;;;;;;17.00;17.00;;;;;17.56;72.59;99717.09;6309530;20;2826285;-59
2022/07/25 03:37:46;;;;;;;;;19.50;18.00;;;;;17.78;71.45;99716.88;6279863;20;2835704;-60
2022/07/25 03:40:15;;;;;;;;;45.50;38.00;;;;;17.44;73.02;99724.50;6279930;20;2847236;-58
2022/07/25 03:42:44;;;;;;;;;40.67;34.33;;;;;17.44;73.77;99720.94;6283961;20;3615970;-59
2022/07/25 03:45:13;;;;;;;;;24.00;22.33;;;;;17.65;72.60;99727.16;6314575;20;3587714;-59
2022/07/25 03:47:41;;;;;;;;;31.67;30.00;;;;;17.60;73.07;99723.13;6284956;20;3581458;-58
2022/07/25 03:50:11;;;;;;;;;38.33;32.00;;;;;17.52;73.33;99726.53;6277305;20;2849283;-59
2022/07/25 03:52:40;;;;;;;;;32.00;29.00;;;;;18.10;71.22;99726.69;6311945;20;3600221;-59
2022/07/25 03:55:10;;;;;;;;;27.67;26.33;;;;;18.31;69.89;99729.28;6283935;20;3594059;-59
2022/07/25 03:57:39;;;;;;;;;24.00;22.00;;;;;18.03;71.76;99730.97;6279657;20;2842027;-58
2022/07/25 04:00:11;;;;;;;;;26.00;23.00;;;;;18.03;71.43;99722.81;6285560;20;3575230;-58
2022/07/25 04:02:40;;;;;;;;;22.00;21.00;;;;;18.06;71.63;99732.53;6279653;20;2838906;-60
2022/07/25 04:05:10;;;;;;;;;23.67;22.67;;;;;18.05;71.31;99726.25;6285158;20;2844073;-60
2022/07/25 04:07:38;;;;;;;;;20.33;19.00;;;;;18.55;69.52;99726.09;6312007;20;3579397;-60
2022/07/25 04:10:08;;;;;;;;;18.00;18.00;;;;;18.54;68.92;99728.97;6279951;20;2491938;-61
2022/07/25 04:12:37;;;;;;;;;21.00;19.50;;;;;18.42;69.89;99733.69;6284871;20;2835696;-60
2022/07/25 04:15:07;;;;;;;;;21.50;19.50;;;;;18.46;69.48;99731.53;6282865;20;2837905;-60
2022/07/25 04:17:35;;;;;;;;;17.00;16.00;;;;;18.87;67.74;99730.38;6283888;20;2492106;-59
2022/07/25 04:20:07;;;;;;;;;18.50;18.50;;;;;18.85;67.62;99735.09;6283570;20;2833595;-60
2022/07/25 04:22:35;;;;;;;;;19.00;17.00;;;;;19.01;67.09;99737.22;6280486;20;2483654;-60
2022/07/25 04:25:06;;;;;;;;;19.00;19.00;;;;;19.09;66.82;99737.34;6283124;20;2844121;-61
2022/07/25 04:27:34;;;;;;;;;16.00;16.00;;;;;19.22;66.64;99734.28;6313818;20;2821154;-60
2022/07/25 04:30:04;;;;;;;;;20.00;20.00;;;;;19.12;66.98;99728.91;6282344;20;2831513;-60
2022/07/25 04:32:32;;;;;;;;;17.50;15.50;;;;;19.60;65.07;99727.81;6284494;20;2821084;-60
2022/07/25 04:35:01;;;;;;;;;18.00;18.00;;;;;19.45;65.88;99723.88;6280554;20;2831586;-60
2022/07/25 04:37:29;;;;;;;;;12.00;12.00;;;;;19.77;64.41;99733.50;6285600;20;2516014;-60
2022/07/25 04:39:57;;;;;;;;;18.00;15.00;;;;;19.85;63.91;99726.28;6284616;20;2802333;-60
2022/07/25 04:42:26;;;;;;;;;21.50;16.00;;;;;19.90;63.58;99729.38;6282667;20;2842045;-60
2022/07/25 04:44:55;;;;;;;;;17.33;17.00;;;;;19.87;63.89;99734.28;6282634;20;3566107;-60
2022/07/25 04:47:24;;;;;;;;;20.33;19.00;;;;;19.94;64.15;99727.22;6281347;20;3575223;-60
2022/07/25 04:49:54;;;;;;;;;16.50;16.50;;;;;20.30;62.92;99730.84;6280858;20;2820076;-60
2022/07/25 04:52:22;;;;;;;;;16.00;16.00;;;;;20.42;62.04;99734.19;6282171;20;2822119;-60
2022/07/25 04:54:51;;;;;;;;;18.00;15.00;;;;;20.55;62.25;99733.81;6280844;20;2821082;-61
2022/07/25 04:57:20;;;;;;;;;18.00;16.00;;;;;20.38;62.63;99738.25;6279425;20;2825235;-60
2022/07/25 04:59:48;;;;;;;;;20.00;18.50;;;;;20.65;62.47;99726.41;6279597;20;2823166;-60
2022/07/25 05:02:18;;;;;;;;;19.00;17.33;;;;;20.74;62.18;99738.22;6283141;20;2839867;-60
2022/07/25 05:04:46;;;;;;;;;21.33;19.00;;;;;20.93;61.59;99743.50;6313526;20;3568009;-60
2022/07/25 05:07:19;;;;;;;;;21.00;17.50;;;;;20.95;61.76;99744.19;6280396;20;2834722;-60
2022/07/25 05:09:47;;;;;;;;;19.00;17.00;;;;;21.17;61.12;99744.66;6283370;20;2546089;-60
2022/07/25 05:12:15;;;;;;;;;19.00;16.00;;;;;21.31;60.96;99741.34;6282485;20;2487870;-60
2022/07/25 05:14:44;;;;;;;;;21.00;16.50;;;;;21.41;60.36;99742.13;6282701;20;2835814;-60
2022/07/25 05:17:13;;;;;;;;;16.00;15.50;;;;;21.33;60.54;99739.31;6279197;20;2824234;-60
2022/07/25 05:19:41;;;;;;;;;17.33;17.33;;;;;21.65;60.35;99746.84;6282839;20;3558568;-60
2022/07/25 05:22:10;;;;;;;;;18.33;17.00;;;;;22.01;58.47;99743.00;6315244;20;3579384;-60
2022/07/25 05:24:39;;;;;;;;;16.00;16.00;;;;;22.05;59.19;99744.41;6312684;20;3561877;-60
2022/07/25 05:27:07;;;;;;;;;17.00;16.00;;;;;22.14;58.49;99744.25;6276851;20;2485707;-60
2022/07/25 05:29:36;;;;;;;;;16.33;16.33;;;;;22.38;57.60;99752.69;6316620;20;3561734;-60
2022/07/25 05:32:05;;;;;;;;;12.33;12.33;;;;;22.35;57.76;99746.56;6277150;20;2483609;-60
2022/07/25 05:34:33;;;;;;;;;18.67;17.00;;;;;22.83;57.04;99749.47;6315411;20;3569019;-60
2022/07/25 05:37:02;;;;;;;;;17.00;15.00;;;;;22.91;56.34;99752.22;6279546;20;3556647;-60
2022/07/25 05:39:31;;;;;;;;;20.00;19.00;;;;;23.00;56.09;99750.34;6280350;20;2829415;-60
2022/07/25 05:41:59;;;;;;;;;18.00;17.33;;;;;23.29;55.66;99738.81;6284102;20;3564956;-60
2022/07/25 05:44:28;;;;;;;;;15.67;15.67;;;;;23.32;55.00;99749.41;6281803;20;3557666;-60
2022/07/25 05:46:57;;;;;;;;;17.00;15.50;;;;;23.50;54.85;99748.34;6278922;20;2826341;-60
2022/07/25 05:49:25;;;;;;;;;14.00;14.00;;;;;23.55;55.31;99744.03;6285913;20;3532559;-60
2022/07/25 05:51:54;;;;;;;;;13.00;13.00;;;;;23.88;53.64;99746.66;6312566;20;3539925;-60
2022/07/25 05:54:23;;;;;;;;;17.00;17.00;;;;;24.05;51.59;99742.81;6275859;20;2830457;-60
2022/07/25 05:56:54;;;;;;;;;15.67;15.67;;;;;24.37;51.74;99748.28;6282216;20;3554529;-60
2022/07/25 05:59:23;;;;;;;;;17.50;16.00;;;;;24.49;51.32;99746.84;6311513;20;2829505;-60
2022/07/25 06:01:52;;;;;;;;;15.00;15.00;;;;;24.51;49.35;99750.25;6281610;20;2816929;-60
2022/07/25 06:04:21;;;;;;;;;18.33;17.33;;;;;24.61;49.86;99750.88;6281586;20;3562770;-59
2022/07/25 06:06:54;;;;;;;;;18.00;18.00;;;;;24.75;49.51;99747.31;6280465;20;3552449;-60
2022/07/25 06:09:23;;;;;;;;;19.50;18.00;;;;;25.12;48.82;99751.09;6279202;20;2836843;-60
2022/07/25 06:11:52;;;;;;;;;17.67;17.67;;;;;25.41;47.75;99752.22;6283702;20;3569104;-57
2022/07/25 06:14:29;;;;;;;;;17.00;17.00;;;;;24.88;47.01;99746.69;6283557;20;3555520;-58
2022/07/25 06:16:57;;;;;;;;;15.50;15.50;;;;;25.01;47.91;99748.78;6279352;20;2819067;-58
2022/07/25 06:19:26;;;;;;;;;14.33;14.33;;;;;25.31;46.62;99746.13;6284126;20;3538033;-57
2022/07/25 06:21:55;;;;;;;;;18.50;14.50;;;;;25.22;47.18;99748.09;6312632;20;2821134;-57
2022/07/25 06:24:23;;;;;;;;;17.33;17.33;;;;;25.48;46.57;99746.78;6280529;20;3575375;-57
2022/07/25 06:26:52;;;;;;;;;16.00;14.00;;;;;25.75;46.28;99748.88;6276369;20;2817008;-56
2022/07/25 06:29:21;;;;;;;;;13.50;13.50;;;;;25.80;46.09;99751.03;6282212;20;2806558;-56
2022/07/25 06:31:49;;;;;;;;;16.00;15.00;;;;;25.52;46.30;99745.38;6280043;20;3548632;-57
2022/07/25 06:34:18;;;;;;;;;16.50;15.00;;;;;25.92;45.90;99743.19;6281253;20;2809773;-57
2022/07/25 06:36:47;;;;;;;;;13.00;12.67;;;;;26.20;45.06;99746.91;6277351;20;3517991;-58
2022/07/25 06:39:15;;;;;;;;;15.50;14.50;;;;;26.24;44.89;99736.38;6280931;20;2807650;-56
2022/07/25 06:41:44;;;;;;;;;16.00;14.00;;;;;26.38;44.16;99746.47;6280823;20;2483633;-57
2022/07/25 06:44:12;;;;;;;;;14.67;14.00;;;;;26.38;44.78;99743.72;6313525;20;3529399;-56
2022/07/25 06:46:41;;;;;;;;;15.00;13.33;;;;;26.60;44.24;99744.63;6314348;20;3537822;-57
2022/07/25 06:49:10;;;;;;;;;15.00;15.00;;;;;26.58;44.18;99737.59;6311080;20;2806513;-54
2022/07/25 06:51:38;;;;;;;;;12.00;12.00;;;;;27.13;42.59;99741.47;6281710;20;2483650;-54
2022/07/25 06:54:07;;;;;;;;;16.00;13.00;;;;;27.35;42.73;99737.59;6314644;20;3548281;-53
2022/07/25 06:56:37;;;;;;;;;20.00;15.50;;;;;27.49;41.55;99744.06;6308083;20;2825282;-57
2022/07/25 06:59:05;;;;;;;;;15.00;13.33;;;;;28.10;40.92;99736.97;6284811;20;2483635;-58
2022/07/25 07:01:34;;;;;;;;;14.00;14.00;;;;;27.88;40.63;99738.97;6314892;20;2810669;-60
2022/07/25 07:04:03;;;;;;;;;15.00;15.00;;;;;28.62;39.62;99736.25;6290238;20;3520075;-61
2022/07/25 07:06:32;;;;;;;;;14.00;12.67;;;;;28.74;38.94;99730.09;6317451;20;2483666;-60
2022/07/25 07:09:01;;;;;;;;;14.00;14.00;;;;;28.80;39.38;99732.00;6316779;20;3527324;-58
2022/07/25 07:11:29;;;;;;;;;14.00;12.67;;;;;28.91;38.57;99738.81;6323187;20;3521094;-59
2022/07/25 07:13:58;;;;;;;;;12.67;12.67;;;;;28.57;39.47;99740.69;6317096;20;3539884;-58
2022/07/25 07:16:27;;;;;;;;;15.00;15.00;;;;;29.11;37.91;99739.69;6315399;20;2810764;-59
2022/07/25 07:18:56;;;;;;;;;14.00;12.67;;;;;29.32;38.32;99736.69;6289389;20;2483592;-61
2022/07/25 07:21:25;;;;;;;;;11.67;11.00;;;;;29.28;37.44;99729.88;6313074;20;3528385;-61
2022/07/25 07:23:53;;;;;;;;;14.00;12.67;;;;;29.36;36.95;99730.69;6285818;20;2483605;-61
2022/07/25 07:26:24;;;;;;;;;16.00;12.67;;;;;29.85;36.78;99735.69;6317535;20;3534375;-60
2022/07/25 07:28:53;;;;;;;;;11.00;11.00;;;;;29.51;36.67;99732.16;6316284;20;3525392;-60
2022/07/25 07:31:22;;;;;;;;;14.00;14.00;;;;;29.14;36.48;99736.47;6289596;20;3533628;-58
2022/07/25 07:33:51;;;;;;;;;10.67;10.67;;;;;29.72;35.28;99736.59;6316947;20;3524268;-58
2022/07/25 07:36:21;;;;;;;;;14.00;12.33;;;;;29.62;35.93;99730.66;6288409;20;3527335;-60
2022/07/25 07:38:49;;;;;;;;;13.33;13.33;;;;;30.30;35.74;99732.94;6321302;20;3525408;-60
2022/07/25 07:41:18;;;;;;;;;11.00;11.00;;;;;30.13;35.42;99742.84;6318577;20;3508597;-63
2022/07/25 07:43:47;;;;;;;;;11.67;9.33;;;;;29.69;36.05;99734.28;6316027;20;3496099;-62
2022/07/25 07:46:15;;;;;;;;;15.00;12.00;;;;;28.90;37.77;99729.66;6317626;20;2483693;-63
2022/07/25 07:48:44;;;;;;;;;13.67;12.67;;;;;30.42;35.13;99735.03;6320128;20;3535733;-63
2022/07/25 07:51:12;;;;;;;;;11.67;11.33;;;;;30.10;33.87;99737.75;6318025;20;2483597;-63
2022/07/25 07:56:31;;;;;;;;;11.00;11.00;;;;;30.58;33.37;99728.94;6304432;20;3512809;-60
2022/07/25 07:59:00;;;;;;;;;10.00;9.00;;;;;31.54;32.77;99740.72;6292356;20;2648234;-60
2022/07/25 08:01:28;;;;;;;;;10.33;10.00;;;;;30.97;32.05;99740.84;6314622;20;3503385;-60
2022/07/25 08:03:57;;;;;;;;;9.67;9.67;;;;;30.97;33.16;99738.91;6289300;20;2483678;-61
2022/07/25 08:06:26;;;;;;;;;9.00;9.00;;;;;31.44;32.09;99744.06;6311151;20;3460647;-61
2022/07/25 08:08:55;;;;;;;;;9.67;9.67;;;;;31.18;32.23;99742.38;6315190;20;3495043;-60
2022/07/25 08:11:25;;;;;;;;;12.00;11.33;;;;;31.26;32.02;99730.97;6319326;20;2797154;-60
2022/07/25 08:13:53;;;;;;;;;9.00;8.33;;;;;30.81;32.17;99728.41;6312627;20;2747165;-61
2022/07/25 08:16:22;;;;;;;;;7.00;6.00;;;;;30.54;32.66;99736.00;6322707;20;2744136;-60
2022/07/25 08:18:50;;;;;;;;;8.00;8.00;;;;;31.55;31.41;99732.19;6316237;20;2748271;-60
2022/07/25 08:21:19;;;;;;;;;9.00;9.00;;;;;31.57;31.02;99730.03;6313729;20;2765959;-60
2022/07/25 08:23:47;;;;;;;;;6.67;6.67;;;;;31.63;31.02;99725.50;6321186;20;2748285;-60
2022/07/25 08:26:16;;;;;;;;;12.67;8.33;;;;;31.72;31.17;99729.63;6313518;20;3487863;-61
2022/07/25 08:28:44;;;;;;;;;11.00;9.33;;;;;31.45;31.25;99726.31;6317246;20;2483663;-61
2022/07/25 08:31:14;;;;;;;;;7.33;7.33;;;;;31.95;31.04;99717.84;6312105;20;3457508;-59
2022/07/25 08:33:42;;;;;;;;;9.33;9.33;;;;;32.32;29.72;99729.72;6317183;20;2769050;-59
2022/07/25 08:36:11;;;;;;;;;9.00;9.00;;;;;31.87;29.97;99727.31;6320568;20;2755623;-59
2022/07/25 08:38:39;;;;;;;;;8.67;7.67;;;;;31.82;30.81;99723.53;6316922;20;2750288;-60
2022/07/25 08:41:08;;;;;;;;;11.00;9.00;;;;;32.05;30.83;99717.31;6323170;20;2771191;-60
2022/07/25 08:43:38;;;;;;;;;9.67;8.67;;;;;31.69;31.07;99714.28;6313988;20;2764830;-60
2022/07/25 08:46:07;;;;;;;;;9.33;9.33;;;;;32.55;29.62;99715.09;6310909;20;3486681;-60
2022/07/25 08:48:37;;;;;;;;;10.67;9.00;;;;;31.81;30.53;99710.72;6319454;20;2764891;-60
2022/07/25 08:51:06;;;;;;;;;10.33;9.33;;;;;31.36;30.67;99709.09;6311469;20;3490879;-60
2022/07/25 08:53:36;;;;;;;;;10.33;10.00;;;;;32.62;29.98;99705.78;6315483;20;2479497;-60
2022/07/25 08:56:07;;;;;;;;;9.00;9.00;;;;;32.91;29.05;99704.88;6309065;20;3463766;-60
2022/07/25 08:58:43;;;;;;;;;12.00;11.33;;;;;32.27;30.13;99704.56;6313870;20;3508758;-60
2022/07/25 09:01:12;;;;;;;;;9.00;9.00;;;;;32.40;30.18;99703.53;6290213;20;2762772;-60
2022/07/25 09:03:43;;;;;;;;;9.33;9.33;;;;;33.12;28.59;99708.19;6316515;20;2483639;-59
2022/07/25 09:06:20;;;;;;;;;9.67;9.67;;;;;32.47;29.56;99697.88;6320610;20;2768055;-61
2022/07/25 09:08:59;;;;;;;;;10.00;10.00;;;;;33.05;29.40;99699.97;6316862;20;3512878;-61
2022/07/25 09:11:35;;;;;;;;;8.00;8.00;;;;;33.03;29.54;99706.88;6313940;20;2752560;-60
2022/07/25 09:14:09;;;;;;;;;9.00;9.00;;;;;32.90;29.40;99699.56;6320755;20;2755504;-60
2022/07/25 09:16:45;;;;;;;;;9.33;9.33;;;;;33.04;29.32;99700.19;6316163;20;2483596;-60
2022/07/25 09:19:21;;;;;;;;;9.33;9.33;;;;;32.55;29.33;99694.78;6315660;20;2771198;-60
2022/07/25 09:22:06;;;;;;;;;11.00;10.00;;;;;32.66;29.74;99693.13;6311135;20;3507546;-60
2022/07/25 09:24:44;;;;;;;;;11.00;11.00;;;;;31.24;31.16;99684.03;6282647;20;3507619;-59
2022/07/25 09:27:16;;;;;;;;;9.00;9.00;;;;;32.44;29.43;99688.09;6307382;20;3463797;-60
2022/07/25 09:29:45;;;;;;;;;10.67;10.00;;;;;31.53;30.93;99684.38;6310311;20;3503350;-60
2022/07/25 09:32:21;;;;;;;;;10.67;10.67;;;;;31.82;30.29;99679.94;6309891;20;3503476;-60
2022/07/25 09:34:50;;;;;;;;;10.00;10.00;;;;;32.90;28.61;99691.22;6313814;20;3502448;-59
2022/07/25 09:37:26;;;;;;;;;11.00;11.00;;;;;32.19;29.63;99687.41;6317070;20;2784851;-60
2022/07/25 09:39:54;;;;;;;;;9.33;9.33;;;;;31.70;30.42;99677.13;6315493;20;2483691;-59
2022/07/25 09:42:28;;;;;;;;;10.33;9.33;;;;;31.57;30.56;99673.66;6316776;20;2483591;-60
2022/07/25 09:45:13;;;;;;;;;12.67;11.67;;;;;30.91;31.36;99672.41;6314670;20;3515878;-60
2022/07/25 09:47:59;;;;;;;;;8.67;8.00;;;;;31.02;31.32;99661.44;6317751;20;2752366;-61
2022/07/25 09:50:31;;;;;;;;;9.67;9.67;;;;;31.37;31.23;99665.53;6310709;20;3493128;-60
2022/07/25 09:53:02;;;;;;;;;10.00;9.33;;;;;31.48;30.94;99664.78;6290996;20;2479514;-60
2022/07/25 09:55:31;;;;;;;;;14.00;11.67;;;;;30.63;31.41;99666.22;6308229;20;3539788;-61
2022/07/25 09:57:59;;;;;;;;;10.67;10.67;;;;;30.77;31.80;99657.78;6278322;20;3521087;-60
2022/07/25 10:00:32;;;;;;;;;28.25;19.75;;;;;31.43;30.88;99659.09;6284705;20;3603499;-60
2022/07/25 10:03:28;;;;;;;;;10.67;9.33;;;;;31.42;30.97;99651.84;6310149;20;3493051;-59
2022/07/25 10:06:35;;;;;;;;;11.67;9.00;;;;;32.69;29.04;99653.72;6314934;20;2769203;-59
2022/07/25 10:09:11;;;;;;;;;8.67;7.33;;;;;32.63;29.44;99654.69;6309285;20;2746092;-60
2022/07/25 10:12:04;;;;;;;;;12.00;11.00;;;;;33.08;28.93;99648.56;6312190;20;3518990;-59
2022/07/25 10:14:35;;;;;;;;;10.00;10.00;;;;;32.33;28.95;99638.84;6317459;20;3516909;-60
2022/07/25 10:17:04;;;;;;;;;13.00;10.00;;;;;33.03;29.01;99645.66;6307718;20;3507510;-60
2022/07/25 10:19:43;;;;;;;;;10.67;10.67;;;;;32.82;28.84;99635.94;6284962;20;2483647;-60
2022/07/25 10:22:21;;;;;;;;;10.33;10.00;;;;;32.79;29.06;99634.50;6310305;20;3507570;-60
2022/07/25 10:25:18;;;;;;;;;18.67;11.67;;;;;33.21;28.41;99637.16;6280910;20;2483628;-59
2022/07/25 10:27:59;;;;;;;;;10.67;10.67;;;;;32.61;28.88;99631.81;6307908;20;3503340;-60
2022/07/25 10:30:37;;;;;;;;;4.00;4.00;;;;;33.07;27.50;99631.00;6276326;20;2736738;-59
2022/07/25 10:33:17;;;;;;;;;8.00;7.33;;;;;33.07;27.46;99624.59;6308035;20;2754549;-62
2022/07/25 10:35:46;;;;;;;;;9.00;9.00;;;;;32.99;28.10;99618.28;6312572;20;2753384;-65
2022/07/25 10:38:27;;;;;;;;;4.33;4.33;;;;;31.96;28.22;99611.22;6316423;20;2745039;-62
2022/07/25 10:40:56;;;;;;;;;12.00;12.00;;;;;33.11;27.97;99609.94;6309433;20;3507542;-62
2022/07/25 10:43:26;;;;;;;;;12.00;12.00;;;;;32.66;28.75;99606.94;6276769;20;2483812;-61
2022/07/25 10:45:59;;;;;;;;;12.33;11.33;;;;;33.06;28.63;99600.66;6308815;20;2794356;-61
2022/07/25 10:48:32;;;;;;;;;7.67;7.33;;;;;32.38;28.98;99599.25;6314073;20;2751290;-61
2022/07/25 10:51:11;;;;;;;;;10.50;10.50;;;;;32.94;28.61;99598.72;6305200;20;2786755;-62
2022/07/25 10:53:43;;;;;;;;;11.33;9.00;;;;;33.68;27.86;99603.69;6303227;20;3484693;-60
2022/07/25 10:56:27;;;;;;;;;10.00;10.00;;;;;33.98;27.03;99614.56;6311312;20;2776469;-59
2022/07/25 10:59:01;;;;;;;;;5.33;5.33;;;;;32.38;28.69;99583.41;6307233;20;2748324;-61
2022/07/25 11:01:35;;;;;;;;;11.33;11.33;;;;;32.75;28.61;99589.63;6310700;20;3517014;-62
2022/07/25 11:04:14;;;;;;;;;10.33;10.33;;;;;32.96;28.04;99577.03;6317135;20;2789884;-62
2022/07/25 11:06:43;;;;;;;;;10.00;10.00;;;;;33.22;26.82;99577.63;6305195;20;3514962;-62
2022/07/25 11:09:18;;;;;;;;;10.00;8.33;;;;;33.42;27.12;99568.88;6310904;20;3479459;-62
2022/07/25 11:11:59;;;;;;;;;9.67;9.67;;;;;33.15;27.78;99561.09;6306342;20;3489897;-62
2022/07/25 11:14:32;;;;;;;;;10.67;9.00;;;;;33.62;27.63;99571.22;6307530;20;3493998;-62
2022/07/25 11:17:22;;;;;;;;;6.33;6.33;;;;;33.54;26.76;99564.13;6308318;20;2741029;-62
2022/07/25 11:20:04;;;;;;;;;8.33;8.33;;;;;33.72;26.76;99554.72;6311260;20;2739268;-62
2022/07/25 11:22:34;;;;;;;;;12.67;11.33;;;;;33.29;26.81;99561.66;6312775;20;3511701;-59